Time;durP1;ratioP1;P1;durP2;ratioP2;P2;SDS_P1;SDS_P2;PMS_P1;PMS_P2;Temp;Humidity;BMP_temperature;BMP_pressure;BME280_temperature;BME280_humidity;BME280_pressure;Samples;Min_cycle;Max_cycle;Signal;HPM_P1;HPM_P2
2022/01/29 00:01:54;;;;;;;116.43;57.67;;;;;;;;;;5116550;27;20398;-83
2022/01/29 00:04:20;;;;;;;105.28;56.17;;;;;;;;;;5116522;27;20898;-82
2022/01/29 00:06:47;;;;;;;110.65;56.20;;;;;;;;;;5115707;27;20442;-84
2022/01/29 00:09:15;;;;;;;112.07;56.65;;;;;;;;;;5117300;27;20389;-83
2022/01/29 00:11:42;;;;;;;111.88;56.03;;;;;;;;;;5105460;28;20501;-83
2022/01/29 00:14:11;;;;;;;111.22;56.42;;;;;;;;;;5108517;27;20409;-82
2022/01/29 00:16:40;;;;;;;112.97;55.65;;;;;;;;;;5117566;27;20396;-82
2022/01/29 00:19:08;;;;;;;111.78;56.88;;;;;;;;;;5117451;27;20413;-84
2022/01/29 00:21:35;;;;;;;114.53;55.85;;;;;;;;;;5114275;27;20454;-82
2022/01/29 00:24:01;;;;;;;111.35;55.60;;;;;;;;;;5106170;28;20510;-82
2022/01/29 00:26:28;;;;;;;110.40;54.58;;;;;;;;;;5107995;27;20888;-82
2022/01/29 00:28:57;;;;;;;113.05;54.90;;;;;;;;;;5116795;27;20401;-82
2022/01/29 00:31:25;;;;;;;109.93;55.60;;;;;;;;;;5106431;28;20427;-81
2022/01/29 00:33:52;;;;;;;110.22;56.72;;;;;;;;;;5106416;28;20479;-83
2022/01/29 00:36:19;;;;;;;108.80;55.35;;;;;;;;;;5105388;28;20460;-81
2022/01/29 00:38:46;;;;;;;107.95;55.05;;;;;;;;;;5106447;28;20422;-81
2022/01/29 00:41:12;;;;;;;107.85;54.65;;;;;;;;;;5104708;28;20414;-82
2022/01/29 00:43:39;;;;;;;107.07;54.78;;;;;;;;;;5107285;27;20412;-82
2022/01/29 00:46:06;;;;;;;109.97;54.35;;;;;;;;;;5111307;27;20402;-81
2022/01/29 00:48:34;;;;;;;109.68;54.63;;;;;;;;;;5105816;28;20401;-82
2022/01/29 00:51:02;;;;;;;107.03;55.27;;;;;;;;;;5105595;28;20398;-81
2022/01/29 00:53:29;;;;;;;108.18;54.67;;;;;;;;;;5110922;27;20397;-84
2022/01/29 00:55:55;;;;;;;108.40;55.83;;;;;;;;;;5106064;28;20393;-82
2022/01/29 00:58:22;;;;;;;111.22;56.50;;;;;;;;;;5105703;28;20415;-83
2022/01/29 01:00:49;;;;;;;110.82;55.15;;;;;;;;;;5106229;28;20958;-84
2022/01/29 01:03:16;;;;;;;108.47;55.93;;;;;;;;;;5106495;28;20816;-83
2022/01/29 01:05:44;;;;;;;109.07;55.78;;;;;;;;;;5106276;27;20461;-82
2022/01/29 01:08:11;;;;;;;112.53;55.03;;;;;;;;;;5105005;28;20403;-83
2022/01/29 01:10:38;;;;;;;110.55;53.90;;;;;;;;;;5113825;27;20485;-82
2022/01/29 01:13:05;;;;;;;105.63;52.70;;;;;;;;;;5113510;28;20454;-81
2022/01/29 01:15:32;;;;;;;105.85;51.30;;;;;;;;;;5114719;28;20410;-82
2022/01/29 01:17:59;;;;;;;100.97;52.38;;;;;;;;;;5117028;28;20399;-82
2022/01/29 01:20:26;;;;;;;99.55;50.00;;;;;;;;;;5115105;28;20743;-83
2022/01/29 01:22:55;;;;;;;93.28;49.10;;;;;;;;;;5116142;28;20414;-83
2022/01/29 01:25:22;;;;;;;94.93;48.22;;;;;;;;;;5115974;28;20461;-83
2022/01/29 01:27:49;;;;;;;93.30;46.70;;;;;;;;;;5115339;28;20400;-82
2022/01/29 01:30:16;;;;;;;95.80;48.42;;;;;;;;;;5111622;28;20796;-81
2022/01/29 01:32:42;;;;;;;88.50;46.38;;;;;;;;;;5103219;28;20410;-82
2022/01/29 01:35:17;;;;;;;91.80;46.30;;;;;;;;;;5104247;28;20401;-83
2022/01/29 01:37:48;;;;;;;88.15;46.90;;;;;;;;;;5102830;28;20398;-83
2022/01/29 01:40:17;;;;;;;96.05;48.10;;;;;;;;;;5103327;28;20418;-81
2022/01/29 01:42:44;;;;;;;93.10;47.15;;;;;;;;;;5113710;28;20426;-81
2022/01/29 01:45:11;;;;;;;89.35;47.60;;;;;;;;;;5115570;28;20450;-83
2022/01/29 01:47:38;;;;;;;90.05;46.85;;;;;;;;;;5116689;28;20404;-83
2022/01/29 01:50:07;;;;;;;90.80;48.03;;;;;;;;;;5115915;28;20406;-83
2022/01/29 01:52:34;;;;;;;94.97;48.70;;;;;;;;;;5116280;28;20870;-82
2022/01/29 01:55:00;;;;;;;87.57;46.15;;;;;;;;;;5115785;28;20399;-83
2022/01/29 01:57:29;;;;;;;90.15;46.80;;;;;;;;;;5113674;27;20391;-82
2022/01/29 01:59:55;;;;;;;85.13;44.33;;;;;;;;;;5112731;27;20472;-83
2022/01/29 02:02:22;;;;;;;84.87;45.37;;;;;;;;;;5107110;28;20524;-83
2022/01/29 02:04:49;;;;;;;81.10;44.08;;;;;;;;;;5107590;28;20391;-82
2022/01/29 02:07:18;;;;;;;88.95;45.10;;;;;;;;;;5109117;28;20406;-83
2022/01/29 02:09:45;;;;;;;77.65;42.63;;;;;;;;;;5107246;28;20402;-81
2022/01/29 02:12:13;;;;;;;84.10;44.72;;;;;;;;;;5117776;27;20397;-82
2022/01/29 02:14:41;;;;;;;82.25;43.83;;;;;;;;;;5120651;27;20512;-83
2022/01/29 02:17:09;;;;;;;79.25;42.33;;;;;;;;;;5120914;27;20404;-82
2022/01/29 02:19:36;;;;;;;82.13;42.53;;;;;;;;;;5115088;27;20909;-82
2022/01/29 02:22:05;;;;;;;75.15;40.75;;;;;;;;;;5108372;28;20398;-82
2022/01/29 02:24:32;;;;;;;78.10;42.33;;;;;;;;;;5119294;27;20985;-82
2022/01/29 02:26:59;;;;;;;77.35;40.97;;;;;;;;;;5113403;27;20807;-83
2022/01/29 02:29:26;;;;;;;71.50;39.03;;;;;;;;;;5114330;27;20410;-83
2022/01/29 02:31:55;;;;;;;71.28;38.55;;;;;;;;;;5120347;27;20397;-82
2022/01/29 02:34:23;;;;;;;67.88;36.05;;;;;;;;;;5119425;27;20425;-83
2022/01/29 02:36:51;;;;;;;71.15;36.63;;;;;;;;;;5120087;27;20393;-84
2022/01/29 02:39:20;;;;;;;66.85;37.38;;;;;;;;;;5119378;27;20442;-80
2022/01/29 02:41:47;;;;;;;71.28;37.53;;;;;;;;;;5119394;27;20756;-84
2022/01/29 02:44:18;;;;;;;65.57;35.15;;;;;;;;;;5120972;27;20404;-83
2022/01/29 02:46:52;;;;;;;68.43;35.60;;;;;;;;;;5106084;28;20403;-83
2022/01/29 02:49:22;;;;;;;67.88;34.70;;;;;;;;;;5105573;28;20862;-82
2022/01/29 02:51:50;;;;;;;67.25;35.75;;;;;;;;;;5115945;27;20389;-83
2022/01/29 02:54:18;;;;;;;63.17;33.67;;;;;;;;;;5119219;27;20450;-83
2022/01/29 02:56:46;;;;;;;61.28;33.35;;;;;;;;;;5118967;27;20469;-82
2022/01/29 02:59:13;;;;;;;62.07;33.60;;;;;;;;;;5107781;28;20425;-82
2022/01/29 03:01:40;;;;;;;66.18;34.55;;;;;;;;;;5117258;27;20465;-82
2022/01/29 03:04:08;;;;;;;59.65;32.72;;;;;;;;;;5113813;27;20452;-83
2022/01/29 03:06:35;;;;;;;65.43;32.70;;;;;;;;;;5119133;27;20455;-83
2022/01/29 03:09:03;;;;;;;57.92;32.53;;;;;;;;;;5117867;27;20412;-83
2022/01/29 03:11:31;;;;;;;55.75;31.25;;;;;;;;;;5117490;27;20889;-82
2022/01/29 03:13:58;;;;;;;59.72;32.13;;;;;;;;;;5118310;27;20405;-82
2022/01/29 03:16:25;;;;;;;60.00;31.77;;;;;;;;;;5116691;27;20731;-83
2022/01/29 03:18:52;;;;;;;58.80;32.38;;;;;;;;;;5117059;27;20471;-83
2022/01/29 03:21:19;;;;;;;56.83;30.43;;;;;;;;;;5119405;27;20425;-82
2022/01/29 03:23:45;;;;;;;57.78;30.25;;;;;;;;;;5112653;27;20392;-83
2022/01/29 03:26:12;;;;;;;58.80;31.00;;;;;;;;;;5115333;27;20469;-82
2022/01/29 03:28:40;;;;;;;53.22;29.27;;;;;;;;;;5119555;27;20411;-82
2022/01/29 03:31:07;;;;;;;54.63;29.67;;;;;;;;;;5113463;27;20453;-81
2022/01/29 03:33:34;;;;;;;54.33;29.20;;;;;;;;;;5115984;27;21012;-83
2022/01/29 03:36:01;;;;;;;52.03;29.05;;;;;;;;;;5118173;27;20399;-83
2022/01/29 03:38:28;;;;;;;54.13;28.90;;;;;;;;;;5117558;27;20485;-83
2022/01/29 03:40:57;;;;;;;53.35;28.65;;;;;;;;;;5116573;27;20418;-82
2022/01/29 03:43:31;;;;;;;53.70;28.20;;;;;;;;;;5118171;27;20408;-84
2022/01/29 03:45:59;;;;;;;52.75;28.25;;;;;;;;;;5118041;27;20402;-83
2022/01/29 03:48:26;;;;;;;49.00;25.73;;;;;;;;;;5119202;27;20402;-82
2022/01/29 03:50:53;;;;;;;41.97;23.60;;;;;;;;;;5119167;27;20401;-83
2022/01/29 03:53:19;;;;;;;47.70;25.33;;;;;;;;;;5116496;27;20919;-82
2022/01/29 03:55:46;;;;;;;39.88;21.88;;;;;;;;;;5120312;27;20409;-82
2022/01/29 03:58:13;;;;;;;43.13;23.23;;;;;;;;;;5113023;27;20402;-83
2022/01/29 04:00:40;;;;;;;40.60;22.53;;;;;;;;;;5124774;27;20514;-82
2022/01/29 04:03:09;;;;;;;42.35;23.02;;;;;;;;;;5118230;27;20812;-83
2022/01/29 04:05:36;;;;;;;40.33;22.38;;;;;;;;;;5123514;27;20408;-83
2022/01/29 04:08:12;;;;;;;45.72;22.15;;;;;;;;;;5106875;27;20457;-83
2022/01/29 04:10:39;;;;;;;40.10;21.08;;;;;;;;;;5117435;27;20957;-83
2022/01/29 04:13:06;;;;;;;38.33;20.17;;;;;;;;;;5119379;27;20387;-83
2022/01/29 04:15:33;;;;;;;38.43;19.90;;;;;;;;;;5116461;27;20457;-83
2022/01/29 04:18:00;;;;;;;38.72;20.48;;;;;;;;;;5116643;27;20543;-83
2022/01/29 04:20:28;;;;;;;36.20;19.00;;;;;;;;;;5116512;27;20534;-83
2022/01/29 04:22:55;;;;;;;36.30;18.52;;;;;;;;;;5116906;27;20451;-82
2022/01/29 04:25:23;;;;;;;31.67;17.17;;;;;;;;;;5117308;27;20437;-82
2022/01/29 04:27:50;;;;;;;33.60;18.38;;;;;;;;;;5115282;27;20893;-82
2022/01/29 04:30:27;;;;;;;36.03;16.88;;;;;;;;;;5115772;27;20401;-83
2022/01/29 04:35:38;;;;;;;32.88;16.45;;;;;;;;;;5107682;27;20394;-83
2022/01/29 04:38:05;;;;;;;30.67;16.17;;;;;;;;;;5117785;27;20399;-83
2022/01/29 04:40:33;;;;;;;33.33;16.75;;;;;;;;;;5115486;27;20462;-82
2022/01/29 04:43:01;;;;;;;34.28;17.40;;;;;;;;;;5117372;27;20405;-82
2022/01/29 04:45:27;;;;;;;33.03;16.88;;;;;;;;;;5116639;27;20397;-83
2022/01/29 04:47:54;;;;;;;32.13;17.73;;;;;;;;;;5114408;27;20393;-82
2022/01/29 04:50:21;;;;;;;33.53;16.80;;;;;;;;;;5115619;27;20922;-82
2022/01/29 04:52:49;;;;;;;33.13;16.70;;;;;;;;;;5117939;27;20388;-84
2022/01/29 04:55:16;;;;;;;34.70;17.57;;;;;;;;;;5114430;27;20395;-82
2022/01/29 04:57:43;;;;;;;35.17;17.80;;;;;;;;;;5111004;27;20935;-83
2022/01/29 05:00:19;;;;;;;34.37;18.67;;;;;;;;;;5118166;27;20507;-84
2022/01/29 05:02:46;;;;;;;35.72;18.15;;;;;;;;;;5110326;27;20449;-82
2022/01/29 05:05:12;;;;;;;32.93;17.87;;;;;;;;;;5107566;27;21119;-83
2022/01/29 05:07:39;;;;;;;36.47;18.75;;;;;;;;;;5109327;27;20403;-83
2022/01/29 05:10:08;;;;;;;30.93;17.33;;;;;;;;;;5102105;28;20910;-82
2022/01/29 05:12:44;;;;;;;34.85;18.70;;;;;;;;;;5119882;27;20394;-83
2022/01/29 05:15:17;;;;;;;33.97;17.80;;;;;;;;;;5120531;27;20408;-84
2022/01/29 05:28:40;;;;;;;34.92;17.83;;;;;;;;;;5115411;28;20451;-83
2022/01/29 05:31:07;;;;;;;31.40;17.27;;;;;;;;;;5106849;28;20390;-83
2022/01/29 05:33:34;;;;;;;33.53;17.07;;;;;;;;;;5107254;28;20394;-83
2022/01/29 05:36:00;;;;;;;33.83;17.58;;;;;;;;;;5109304;28;20868;-82
2022/01/29 05:38:27;;;;;;;37.17;18.33;;;;;;;;;;5122740;27;20465;-81
2022/01/29 05:40:56;;;;;;;34.20;17.60;;;;;;;;;;5125287;27;20420;-82
2022/01/29 05:43:23;;;;;;;30.38;17.20;;;;;;;;;;5124307;27;20423;-83
2022/01/29 05:45:50;;;;;;;31.23;16.85;;;;;;;;;;5124261;27;20867;-83
2022/01/29 05:48:17;;;;;;;35.80;19.65;;;;;;;;;;5109366;27;20800;-80
2022/01/29 05:50:44;;;;;;;36.75;19.15;;;;;;;;;;5115959;27;20396;-84
2022/01/29 05:53:10;;;;;;;36.13;19.20;;;;;;;;;;5108769;27;20394;-82
2022/01/29 05:55:37;;;;;;;33.80;18.25;;;;;;;;;;5106714;27;20894;-83
2022/01/29 05:58:06;;;;;;;34.00;18.02;;;;;;;;;;5109373;28;20399;-84
2022/01/29 06:00:35;;;;;;;32.28;18.30;;;;;;;;;;5108300;28;20410;-83
2022/01/29 06:03:03;;;;;;;33.17;18.33;;;;;;;;;;5109056;28;20391;-84
2022/01/29 06:05:30;;;;;;;36.22;19.92;;;;;;;;;;5120316;27;20742;-83
2022/01/29 06:07:57;;;;;;;38.17;19.27;;;;;;;;;;5120908;27;20400;-83
2022/01/29 06:10:24;;;;;;;35.22;18.70;;;;;;;;;;5106769;28;20451;-83
2022/01/29 06:12:59;;;;;;;41.08;20.48;;;;;;;;;;5109187;28;20395;-84
2022/01/29 06:15:27;;;;;;;37.10;19.33;;;;;;;;;;5105850;27;20414;-83
2022/01/29 06:17:54;;;;;;;36.35;19.88;;;;;;;;;;5104919;27;20400;-84
2022/01/29 06:20:22;;;;;;;37.60;19.55;;;;;;;;;;5112172;27;20472;-84
2022/01/29 06:22:49;;;;;;;39.42;20.38;;;;;;;;;;5114428;27;20391;-83
2022/01/29 06:25:15;;;;;;;39.77;20.50;;;;;;;;;;5114617;27;20416;-83
2022/01/29 06:27:42;;;;;;;36.90;20.02;;;;;;;;;;5106127;27;20394;-85
2022/01/29 06:30:09;;;;;;;38.40;20.80;;;;;;;;;;5111388;27;21024;-84
2022/01/29 06:32:38;;;;;;;38.40;20.02;;;;;;;;;;5108372;27;20395;-83
2022/01/29 06:35:05;;;;;;;38.97;19.58;;;;;;;;;;5100294;27;20455;-84
2022/01/29 06:37:38;;;;;;;40.80;20.73;;;;;;;;;;5102070;27;20518;-83
2022/01/29 06:40:06;;;;;;;41.40;20.65;;;;;;;;;;5099703;27;20406;-84
2022/01/29 06:42:33;;;;;;;95.57;40.10;;;;;;;;;;5098051;28;20461;-85
2022/01/29 06:45:00;;;;;;;44.80;22.63;;;;;;;;;;5114756;27;20450;-83
2022/01/29 06:47:27;;;;;;;56.85;26.65;;;;;;;;;;5116068;27;20403;-83
2022/01/29 06:49:56;;;;;;;51.90;25.17;;;;;;;;;;5107542;27;20455;-83
2022/01/29 06:52:23;;;;;;;43.03;22.35;;;;;;;;;;5117715;27;20391;-83
2022/01/29 06:54:50;;;;;;;38.97;21.50;;;;;;;;;;5129651;27;20401;-86
2022/01/29 06:57:17;;;;;;;40.95;21.58;;;;;;;;;;5119536;27;20376;-84
2022/01/29 06:59:44;;;;;;;42.33;22.33;;;;;;;;;;5110282;27;20399;-82
2022/01/29 07:02:11;;;;;;;43.00;22.20;;;;;;;;;;5118359;27;20410;-83
2022/01/29 07:04:38;;;;;;;42.93;21.43;;;;;;;;;;5123582;27;20939;-84
2022/01/29 07:07:06;;;;;;;44.00;22.48;;;;;;;;;;5124444;27;20395;-83
2022/01/29 07:09:33;;;;;;;45.80;23.60;;;;;;;;;;5107917;27;20400;-84
2022/01/29 07:12:08;;;;;;;45.42;23.48;;;;;;;;;;5111910;27;20395;-83
2022/01/29 07:14:37;;;;;;;48.20;24.55;;;;;;;;;;5107351;28;20920;-84
2022/01/29 07:17:05;;;;;;;45.72;24.20;;;;;;;;;;5121251;27;20409;-83
2022/01/29 07:19:32;;;;;;;45.70;23.23;;;;;;;;;;5123494;27;21848;-83
2022/01/29 07:21:59;;;;;;;47.60;25.38;;;;;;;;;;5106118;27;20430;-83
2022/01/29 07:24:27;;;;;;;57.78;27.55;;;;;;;;;;5107874;28;20526;-83
2022/01/29 07:26:54;;;;;;;51.42;26.73;;;;;;;;;;5108560;27;20402;-84
2022/01/29 07:29:21;;;;;;;49.65;25.60;;;;;;;;;;5124046;27;20393;-84
2022/01/29 07:31:48;;;;;;;44.85;25.05;;;;;;;;;;5110590;27;20470;-82
2022/01/29 07:34:15;;;;;;;52.75;26.25;;;;;;;;;;5110531;27;20796;-84
2022/01/29 07:36:42;;;;;;;49.08;25.73;;;;;;;;;;5106661;28;20402;-83
2022/01/29 07:39:08;;;;;;;50.83;25.70;;;;;;;;;;5112875;27;20425;-82
2022/01/29 07:41:37;;;;;;;48.72;25.92;;;;;;;;;;5114269;27;20786;-84
2022/01/29 07:44:04;;;;;;;45.55;25.27;;;;;;;;;;5115655;27;20407;-83
2022/01/29 07:46:31;;;;;;;48.53;25.58;;;;;;;;;;5105070;27;20876;-83
2022/01/29 07:48:58;;;;;;;49.67;26.75;;;;;;;;;;5103974;27;20399;-85
2022/01/29 07:51:25;;;;;;;50.25;26.88;;;;;;;;;;5109480;27;20396;-83
2022/01/29 07:53:51;;;;;;;47.67;26.20;;;;;;;;;;5107032;27;20814;-84
2022/01/29 07:56:20;;;;;;;49.53;26.58;;;;;;;;;;5106549;27;20403;-84
2022/01/29 07:58:48;;;;;;;47.43;27.13;;;;;;;;;;5108527;27;20401;-82
2022/01/29 08:01:15;;;;;;;45.67;26.10;;;;;;;;;;5103589;28;20414;-85
2022/01/29 08:03:44;;;;;;;41.25;24.15;;;;;;;;;;5106671;28;20757;-84
2022/01/29 08:06:11;;;;;;;43.75;23.75;;;;;;;;;;5106717;27;20405;-83
2022/01/29 08:08:38;;;;;;;38.95;21.65;;;;;;;;;;5116497;27;20495;-84
2022/01/29 08:11:05;;;;;;;39.10;20.57;;;;;;;;;;5107132;28;20459;-84
2022/01/29 08:13:31;;;;;;;35.90;20.50;;;;;;;;;;5106092;28;20421;-83
2022/01/29 08:15:59;;;;;;;35.25;20.23;;;;;;;;;;5106679;28;20410;-84
2022/01/29 08:18:26;;;;;;;35.42;20.20;;;;;;;;;;5106739;28;20414;-84
2022/01/29 08:20:53;;;;;;;33.97;19.25;;;;;;;;;;5106250;28;20881;-84
2022/01/29 08:23:20;;;;;;;33.83;18.73;;;;;;;;;;5106729;28;20407;-81
2022/01/29 08:25:48;;;;;;;29.57;17.90;;;;;;;;;;5105721;27;20402;-84
2022/01/29 08:28:15;;;;;;;30.52;16.92;;;;;;;;;;5099881;27;20472;-83
2022/01/29 08:30:42;;;;;;;27.35;16.23;;;;;;;;;;5100137;27;20970;-84
2022/01/29 08:33:17;;;;;;;34.70;16.38;;;;;;;;;;5105298;27;20397;-82
2022/01/29 08:35:44;;;;;;;25.95;15.20;;;;;;;;;;5106396;28;20468;-84
2022/01/29 08:38:10;;;;;;;28.85;15.68;;;;;;;;;;5105722;27;20792;-82
2022/01/29 08:40:37;;;;;;;28.45;16.35;;;;;;;;;;5105903;28;20402;-83
2022/01/29 08:43:04;;;;;;;28.10;15.10;;;;;;;;;;5115821;27;21038;-84
2022/01/29 08:45:31;;;;;;;24.45;14.57;;;;;;;;;;5102974;27;20411;-84
2022/01/29 08:47:58;;;;;;;27.20;17.45;;;;;;;;;;5103770;27;20441;-92
2022/01/29 08:50:27;;;;;;;23.55;15.13;;;;;;;;;;5107990;28;20459;-90
2022/01/29 08:52:54;;;;;;;27.20;15.53;;;;;;;;;;5104117;28;20398;-88
2022/01/29 08:55:21;;;;;;;28.30;15.95;;;;;;;;;;5112441;27;20448;-89
2022/01/29 08:57:49;;;;;;;24.70;14.90;;;;;;;;;;5110984;27;20387;-93
2022/01/29 09:00:17;;;;;;;29.25;15.23;;;;;;;;;;5122001;27;20960;-91
2022/01/29 09:02:44;;;;;;;27.60;16.55;;;;;;;;;;5118357;27;20412;-90
2022/01/29 09:05:12;;;;;;;25.88;14.98;;;;;;;;;;5106854;27;20395;-88
2022/01/29 09:07:41;;;;;;;23.10;13.90;;;;;;;;;;5088493;28;20406;-91
2022/01/29 09:10:08;;;;;;;24.75;13.52;;;;;;;;;;5100666;28;20402;-90
2022/01/29 09:12:35;;;;;;;22.75;13.85;;;;;;;;;;5124275;27;20402;-90
2022/01/29 09:15:02;;;;;;;24.88;14.30;;;;;;;;;;5120954;27;20401;-90
2022/01/29 09:17:31;;;;;;;22.98;14.98;;;;;;;;;;5114366;27;22106;-90
2022/01/29 09:19:58;;;;;;;23.93;12.03;;;;;;;;;;5117176;28;20454;-90
2022/01/29 09:22:25;;;;;;;22.50;12.68;;;;;;;;;;5112711;28;20468;-90
2022/01/29 09:24:53;;;;;;;25.20;13.60;;;;;;;;;;5109814;28;20428;-89
2022/01/29 09:27:20;;;;;;;20.20;12.25;;;;;;;;;;5114124;28;20865;-89
2022/01/29 09:29:47;;;;;;;21.60;11.98;;;;;;;;;;5116484;28;20392;-91
2022/01/29 09:32:14;;;;;;;22.52;12.95;;;;;;;;;;5110168;27;20403;-89
2022/01/29 09:34:40;;;;;;;21.70;12.80;;;;;;;;;;5116315;28;20413;-89
2022/01/29 09:37:07;;;;;;;22.50;12.73;;;;;;;;;;5112992;28;21011;-91
2022/01/29 09:39:34;;;;;;;23.53;13.33;;;;;;;;;;5109301;28;20476;-90
2022/01/29 09:42:03;;;;;;;19.42;12.23;;;;;;;;;;5113223;28;20417;-90
2022/01/29 09:44:31;;;;;;;21.50;12.53;;;;;;;;;;5108620;28;20546;-91
2022/01/29 09:46:58;;;;;;;27.00;13.25;;;;;;;;;;5107424;28;20444;-89
2022/01/29 09:49:25;;;;;;;20.98;12.15;;;;;;;;;;5118159;28;20401;-90
2022/01/29 09:51:52;;;;;;;18.90;12.18;;;;;;;;;;5125361;28;20401;-91
2022/01/29 09:54:19;;;;;;;23.83;12.52;;;;;;;;;;5141737;27;20404;-91
2022/01/29 09:56:46;;;;;;;21.27;12.57;;;;;;;;;;5134304;27;20418;-89
2022/01/29 09:59:15;;;;;;;22.27;13.23;;;;;;;;;;5125001;28;20420;-90
2022/01/29 10:01:42;;;;;;;24.30;12.90;;;;;;;;;;5110644;28;20471;-90
2022/01/29 10:04:09;;;;;;;29.30;14.27;;;;;;;;;;5108704;28;20455;-88
2022/01/29 10:06:37;;;;;;;25.02;14.27;;;;;;;;;;5101604;28;20425;-90
2022/01/29 10:09:09;;;;;;;25.13;14.02;;;;;;;;;;5106215;28;20398;-91
2022/01/29 10:11:36;;;;;;;27.52;16.00;;;;;;;;;;5107320;28;20417;-90
2022/01/29 10:14:05;;;;;;;25.77;15.23;;;;;;;;;;5099404;28;20485;-90
2022/01/29 10:16:35;;;;;;;26.13;14.75;;;;;;;;;;5107356;28;20455;-89
2022/01/29 10:19:05;;;;;;;30.50;15.05;;;;;;;;;;5119127;27;20483;-75
2022/01/29 10:21:34;;;;;;;26.85;15.48;;;;;;;;;;5116044;27;20455;-91
2022/01/29 10:24:04;;;;;;;24.98;14.95;;;;;;;;;;5127078;27;20540;-92
2022/01/29 10:26:34;;;;;;;27.50;15.50;;;;;;;;;;5133342;27;20462;-93
2022/01/29 10:29:02;;;;;;;30.67;15.52;;;;;;;;;;5115133;27;20442;-92
2022/01/29 10:31:44;;;;;;;26.73;15.52;;;;;;;;;;5124974;27;20395;-93
2022/01/29 10:34:19;;;;;;;29.95;16.30;;;;;;;;;;5115079;27;20397;-90
2022/01/29 10:36:47;;;;;;;30.65;17.25;;;;;;;;;;5102054;28;20409;-89
2022/01/29 10:39:14;;;;;;;31.90;17.85;;;;;;;;;;5102943;27;20809;-89
2022/01/29 10:41:41;;;;;;;40.08;23.77;;;;;;;;;;5111605;27;20535;-88
2022/01/29 10:44:15;;;;;;;31.45;17.77;;;;;;;;;;5110744;28;20982;-89
2022/01/29 10:46:46;;;;;;;40.95;22.60;;;;;;;;;;5113313;27;20409;-89
2022/01/29 10:49:24;;;;;;;40.80;20.48;;;;;;;;;;5130201;27;20442;-91
2022/01/29 10:51:59;;;;;;;38.25;21.88;;;;;;;;;;5102297;27;20394;-88
2022/01/29 10:54:27;;;;;;;36.72;18.73;;;;;;;;;;5120185;27;20440;-91
2022/01/29 10:56:58;;;;;;;34.72;18.63;;;;;;;;;;5116864;27;20872;-90
2022/01/29 10:59:26;;;;;;;32.30;16.95;;;;;;;;;;5099914;28;20410;-89
2022/01/29 11:01:57;;;;;;;36.47;18.30;;;;;;;;;;5109466;28;20467;-89
2022/01/29 11:04:26;;;;;;;40.72;19.83;;;;;;;;;;5117108;27;20393;-90
2022/01/29 11:06:55;;;;;;;41.53;20.33;;;;;;;;;;5112763;27;20403;-90
2022/01/29 11:09:22;;;;;;;40.33;21.00;;;;;;;;;;5110829;28;20402;-90
2022/01/29 11:11:51;;;;;;;42.30;20.80;;;;;;;;;;5121363;27;20455;-90
2022/01/29 11:14:21;;;;;;;39.35;20.05;;;;;;;;;;5126668;27;20451;-89
2022/01/29 11:16:48;;;;;;;41.25;19.85;;;;;;;;;;5090588;28;20935;-91
2022/01/29 11:19:18;;;;;;;43.05;20.52;;;;;;;;;;5123005;27;20394;-90
2022/01/29 11:21:47;;;;;;;43.78;23.02;;;;;;;;;;5106213;28;20406;-90
2022/01/29 11:24:18;;;;;;;43.75;21.67;;;;;;;;;;5107701;27;20442;-90
2022/01/29 11:26:46;;;;;;;42.80;21.73;;;;;;;;;;5105026;28;20402;-88
2022/01/29 11:29:34;;;;;;;44.33;21.88;;;;;;;;;;5103732;27;20805;-89
2022/01/29 11:32:33;;;;;;;45.47;21.50;;;;;;;;;;5100935;27;20470;-87
2022/01/29 11:35:07;;;;;;;40.88;21.73;;;;;;;;;;5113221;27;20422;-89
2022/01/29 11:37:46;;;;;;;44.17;22.35;;;;;;;;;;5101019;27;20406;-86
2022/01/29 11:40:22;;;;;;;40.50;21.77;;;;;;;;;;5111103;27;20405;-87
2022/01/29 11:43:07;;;;;;;45.15;23.75;;;;;;;;;;5102372;27;20504;-86
2022/01/29 11:45:44;;;;;;;41.97;22.42;;;;;;;;;;5111892;27;20434;-88
2022/01/29 11:48:50;;;;;;;43.20;22.93;;;;;;;;;;5105274;28;20409;-89
2022/01/29 11:51:47;;;;;;;46.80;23.58;;;;;;;;;;5107443;27;20484;-88
2022/01/29 11:54:20;;;;;;;45.38;22.85;;;;;;;;;;5101795;28;20400;-87
2022/01/29 11:56:48;;;;;;;49.50;27.08;;;;;;;;;;5099326;28;20543;-86
2022/01/29 11:59:26;;;;;;;49.28;27.13;;;;;;;;;;5109719;27;20412;-87
2022/01/29 12:01:54;;;;;;;47.03;25.85;;;;;;;;;;5105526;28;20412;-87
2022/01/29 12:04:22;;;;;;;45.92;24.92;;;;;;;;;;5113082;27;20409;-88
2022/01/29 12:07:12;;;;;;;46.95;24.08;;;;;;;;;;5107164;27;20452;-85
2022/01/29 12:09:47;;;;;;;51.15;26.15;;;;;;;;;;5099191;28;20445;-88
2022/01/29 12:12:17;;;;;;;50.28;25.35;;;;;;;;;;5106575;27;20395;-87
2022/01/29 12:14:45;;;;;;;48.67;24.67;;;;;;;;;;5103315;27;20403;-85
2022/01/29 12:17:13;;;;;;;46.22;21.98;;;;;;;;;;5104840;27;20397;-85
2022/01/29 12:19:41;;;;;;;47.80;22.53;;;;;;;;;;5101995;27;20418;-86
2022/01/29 12:22:14;;;;;;;48.58;23.80;;;;;;;;;;5101726;28;21868;-86
2022/01/29 12:24:42;;;;;;;51.70;24.73;;;;;;;;;;5108618;27;20414;-88
2022/01/29 12:27:10;;;;;;;51.88;25.42;;;;;;;;;;5105449;28;20410;-86
2022/01/29 12:29:36;;;;;;;49.28;24.33;;;;;;;;;;5104361;28;20411;-87
2022/01/29 12:32:04;;;;;;;48.97;24.77;;;;;;;;;;5104836;28;20458;-86
2022/01/29 12:34:31;;;;;;;55.07;27.20;;;;;;;;;;5091461;27;20404;-87
2022/01/29 12:37:11;;;;;;;48.15;24.27;;;;;;;;;;5099767;27;20451;-86
2022/01/29 12:39:38;;;;;;;48.97;25.90;;;;;;;;;;5105386;27;20418;-87
2022/01/29 12:42:25;;;;;;;45.80;21.83;;;;;;;;;;5102588;28;20406;-85
2022/01/29 12:44:55;;;;;;;41.78;19.65;;;;;;;;;;5104158;27;20475;-87
2022/01/29 12:47:27;;;;;;;40.83;19.77;;;;;;;;;;5104684;27;20491;-85
2022/01/29 12:49:54;;;;;;;62.70;28.33;;;;;;;;;;5100818;27;20422;-76
2022/01/29 12:52:24;;;;;;;44.55;22.00;;;;;;;;;;5098895;28;20390;-85
2022/01/29 12:54:58;;;;;;;46.55;23.80;;;;;;;;;;5108735;27;20446;-86
2022/01/29 12:57:25;;;;;;;45.75;22.05;;;;;;;;;;5099018;27;20440;-86
2022/01/29 12:59:52;;;;;;;41.30;22.57;;;;;;;;;;5104594;27;20438;-87
2022/01/29 13:02:22;;;;;;;42.95;22.17;;;;;;;;;;5102995;27;20466;-88
2022/01/29 13:04:49;;;;;;;44.72;21.73;;;;;;;;;;5103150;27;20468;-88
2022/01/29 13:07:18;;;;;;;42.33;20.75;;;;;;;;;;5100230;27;20427;-89
2022/01/29 13:09:55;;;;;;;41.35;20.02;;;;;;;;;;5108993;27;20977;-87
2022/01/29 13:12:22;;;;;;;40.13;19.63;;;;;;;;;;5099368;28;20470;-87
2022/01/29 13:14:52;;;;;;;39.97;20.58;;;;;;;;;;5111516;27;20803;-95
2022/01/29 13:17:21;;;;;;;41.05;21.33;;;;;;;;;;5117121;27;20485;-87
2022/01/29 13:19:49;;;;;;;43.95;21.73;;;;;;;;;;5099025;28;20522;-89
2022/01/29 13:22:55;;;;;;;43.63;21.23;;;;;;;;;;5107581;28;20403;-96
2022/01/29 13:25:29;;;;;;;38.80;20.50;;;;;;;;;;5106779;28;20459;-90
2022/01/29 13:28:06;;;;;;;40.90;20.90;;;;;;;;;;5097585;27;20761;-88
2022/01/29 13:30:33;;;;;;;39.60;21.47;;;;;;;;;;5098392;28;20939;-82
2022/01/29 13:33:08;;;;;;;37.97;21.45;;;;;;;;;;5100725;28;20463;-85
2022/01/29 13:35:42;;;;;;;40.13;21.52;;;;;;;;;;5103430;28;20402;-84
2022/01/29 13:38:22;;;;;;;39.47;21.50;;;;;;;;;;5105129;28;20411;-87
2022/01/29 13:40:53;;;;;;;40.72;21.77;;;;;;;;;;5106957;28;20401;-87
2022/01/29 13:43:29;;;;;;;41.47;22.73;;;;;;;;;;5109797;28;20935;-90
2022/01/29 13:45:58;;;;;;;44.17;23.40;;;;;;;;;;5128155;28;20383;-91
2022/01/29 13:48:26;;;;;;;43.53;25.02;;;;;;;;;;5117459;28;20402;-89
2022/01/29 13:50:57;;;;;;;44.45;25.33;;;;;;;;;;5098965;28;20882;-87
2022/01/29 13:53:25;;;;;;;41.75;24.40;;;;;;;;;;5107490;27;20414;-86
2022/01/29 13:56:05;;;;;;;41.08;24.77;;;;;;;;;;5107784;27;20398;-86
2022/01/29 13:58:52;;;;;;;41.38;24.40;;;;;;;;;;5094478;27;20421;-89
2022/01/29 14:01:39;;;;;;;41.05;25.70;;;;;;;;;;5108023;27;20408;-88
2022/01/29 14:04:06;;;;;;;43.05;27.13;;;;;;;;;;5108914;27;20483;-89
2022/01/29 14:06:38;;;;;;;48.25;28.60;;;;;;;;;;5107151;28;20793;-89
2022/01/29 14:09:21;;;;;;;46.58;27.27;;;;;;;;;;5112193;27;20397;-86
2022/01/29 14:12:05;;;;;;;43.47;25.08;;;;;;;;;;5092033;27;20842;-87
2022/01/29 14:14:35;;;;;;;47.25;26.42;;;;;;;;;;5093637;27;20463;-87
2022/01/29 14:17:03;;;;;;;45.70;26.55;;;;;;;;;;5101832;27;20451;-86
2022/01/29 14:19:31;;;;;;;48.13;26.85;;;;;;;;;;5107623;28;20894;-90
2022/01/29 14:22:00;;;;;;;51.03;26.45;;;;;;;;;;5102588;27;20468;-90
2022/01/29 14:24:28;;;;;;;46.30;26.45;;;;;;;;;;5094010;27;20420;-89
2022/01/29 14:26:55;;;;;;;44.83;25.10;;;;;;;;;;5095331;27;20836;-87
2022/01/29 14:29:24;;;;;;;48.33;27.02;;;;;;;;;;5102900;27;20460;-90
2022/01/29 14:31:51;;;;;;;43.47;26.67;;;;;;;;;;5109200;27;20410;-88
2022/01/29 14:34:18;;;;;;;45.20;27.63;;;;;;;;;;5105607;27;20390;-88
2022/01/29 14:36:46;;;;;;;44.47;27.65;;;;;;;;;;5108293;27;20890;-90
2022/01/29 14:39:15;;;;;;;42.70;25.45;;;;;;;;;;5107094;27;20406;-87
2022/01/29 14:41:43;;;;;;;44.50;26.10;;;;;;;;;;5107333;27;21171;-88